Time;durP1;ratioP1;P1;durP2;ratioP2;P2;SDS_P1;SDS_P2;PMS_P1;PMS_P2;Temp;Humidity;BMP_temperature;BMP_pressure;BME280_temperature;BME280_humidity;BME280_pressure;Samples;Min_cycle;Max_cycle;Signal;HPM_P1;HPM_P2
2023/05/13 00:01:28;;;;;;;12.02;8.55;;;11.90;99.90;;;;;;5019805;28;20045;-88
2023/05/13 00:03:53;;;;;;;13.23;8.75;;;11.80;99.90;;;;;;5022448;28;20043;-89
2023/05/13 00:06:19;;;;;;;10.25;8.27;;;11.90;99.90;;;;;;5023155;28;20110;-89
2023/05/13 00:08:45;;;;;;;10.35;8.98;;;11.80;99.90;;;;;;5038208;28;20040;-89
2023/05/13 00:11:11;;;;;;;9.60;8.52;;;11.70;99.90;;;;;;5024045;28;20040;-88
2023/05/13 00:13:36;;;;;;;14.32;8.23;;;11.80;99.90;;;;;;5035733;28;20056;-88
2023/05/13 00:16:03;;;;;;;10.20;8.77;;;11.70;99.90;;;;;;5017621;28;20040;-88
2023/05/13 00:18:28;;;;;;;9.65;8.65;;;11.40;99.90;;;;;;5022414;28;20468;-88
2023/05/13 00:20:55;;;;;;;12.55;8.73;;;11.40;99.90;;;;;;5018797;28;20123;-87
2023/05/13 00:23:21;;;;;;;10.88;8.55;;;11.20;99.90;;;;;;5017970;28;20437;-89
2023/05/13 00:25:47;;;;;;;12.43;8.73;;;11.20;99.90;;;;;;5022800;28;20143;-87
2023/05/13 00:28:15;;;;;;;11.90;8.55;;;11.10;99.90;;;;;;5018127;28;20117;-88
2023/05/13 00:30:42;;;;;;;12.90;9.00;;;11.10;99.90;;;;;;5034115;28;20500;-88
2023/05/13 00:33:08;;;;;;;13.88;10.13;;;11.10;99.90;;;;;;5025860;28;20041;-88
2023/05/13 00:35:34;;;;;;;13.45;9.30;;;11.10;99.90;;;;;;5020210;28;20264;-88
2023/05/13 00:38:00;;;;;;;13.52;9.43;;;11.10;99.90;;;;;;5023524;28;20050;-86
2023/05/13 00:40:25;;;;;;;11.23;9.50;;;11.20;99.90;;;;;;5018395;28;20144;-89
2023/05/13 00:42:56;;;;;;;10.70;9.48;;;11.20;99.90;;;;;;5017527;28;20049;-89
2023/05/13 00:45:21;;;;;;;12.73;9.63;;;11.20;99.90;;;;;;5026174;28;20041;-88
2023/05/13 00:47:48;;;;;;;11.40;9.95;;;11.20;99.90;;;;;;5021478;28;20373;-88
2023/05/13 00:50:14;;;;;;;10.77;9.27;;;11.20;99.90;;;;;;5023087;28;20040;-88
2023/05/13 00:52:41;;;;;;;13.07;9.95;;;11.20;99.90;;;;;;5025375;28;20407;-88
2023/05/13 00:55:08;;;;;;;13.48;9.73;;;11.10;99.90;;;;;;5022009;28;20104;-88
2023/05/13 00:57:39;;;;;;;11.38;9.52;;;11.10;99.90;;;;;;5019306;28;20044;-89
2023/05/13 01:00:05;;;;;;;13.77;10.85;;;11.10;99.90;;;;;;5051367;28;20045;-89
2023/05/13 01:03:01;;;;;;;11.45;10.32;;;11.00;99.90;;;;;;5022591;28;20033;-88
2023/05/13 01:06:00;;;;;;;12.93;10.82;;;11.00;99.90;;;;;;5036358;28;20369;-89
2023/05/13 01:08:45;;;;;;;12.95;9.63;;;10.80;99.90;;;;;;5033942;28;20045;-88
2023/05/13 01:11:16;;;;;;;13.13;10.87;;;10.80;99.90;;;;;;5017189;28;20041;-88
2023/05/13 01:13:45;;;;;;;13.88;10.23;;;10.80;99.90;;;;;;5015707;28;20303;-88
2023/05/13 01:16:39;;;;;;;12.15;10.63;;;10.70;99.90;;;;;;5016842;28;20063;-88
2023/05/13 01:19:21;;;;;;;12.68;10.38;;;10.70;99.90;;;;;;5027267;28;20052;-88
2023/05/13 01:22:02;;;;;;;13.43;9.77;;;10.70;99.90;;;;;;5039745;28;20146;-88
2023/05/13 01:24:28;;;;;;;16.20;10.60;;;10.80;99.90;;;;;;5019526;28;20395;-90
2023/05/13 01:26:54;;;;;;;12.65;10.15;;;10.80;99.90;;;;;;5021613;28;20080;-87
2023/05/13 01:29:20;;;;;;;11.93;10.20;;;11.00;99.90;;;;;;5016665;28;20298;-88
2023/05/13 01:31:50;;;;;;;16.40;10.73;;;11.00;99.90;;;;;;5020309;28;20041;-88
2023/05/13 01:34:18;;;;;;;13.63;10.88;;;11.00;99.90;;;;;;5022123;28;20505;-89
2023/05/13 01:36:44;;;;;;;12.60;11.20;;;11.00;99.90;;;;;;5035276;28;20072;-88
2023/05/13 01:39:17;;;;;;;17.80;10.63;;;11.00;99.90;;;;;;5021379;28;20088;-89
2023/05/13 01:41:43;;;;;;;12.57;10.68;;;11.00;99.90;;;;;;5035200;28;20041;-89
2023/05/13 01:44:09;;;;;;;13.02;10.73;;;10.90;99.90;;;;;;5037593;28;20592;-88
2023/05/13 01:46:41;;;;;;;14.63;11.63;;;10.90;99.90;;;;;;5036037;28;20124;-88
2023/05/13 01:49:09;;;;;;;14.68;11.48;;;10.90;99.90;;;;;;5019078;28;20303;-89
2023/05/13 01:51:37;;;;;;;12.93;11.30;;;10.90;99.90;;;;;;5021325;28;20416;-89
2023/05/13 01:54:03;;;;;;;12.40;11.10;;;10.90;99.90;;;;;;5021294;28;20144;-89
2023/05/13 01:56:35;;;;;;;16.95;12.02;;;10.90;99.90;;;;;;5021637;28;20048;-89
2023/05/13 01:59:03;;;;;;;13.13;11.73;;;10.80;99.90;;;;;;5038000;28;20040;-89
2023/05/13 02:01:29;;;;;;;12.93;11.05;;;10.80;99.90;;;;;;5030087;28;20121;-89
2023/05/13 02:03:59;;;;;;;13.35;11.27;;;10.80;99.90;;;;;;5036383;28;20049;-88
2023/05/13 02:06:27;;;;;;;16.15;12.07;;;10.80;99.90;;;;;;5022531;28;20041;-89
2023/05/13 02:08:54;;;;;;;16.08;11.43;;;10.80;99.90;;;;;;5038404;28;20053;-88
2023/05/13 02:11:23;;;;;;;19.67;11.80;;;10.70;99.90;;;;;;5026777;28;20115;-88
2023/05/13 02:13:51;;;;;;;14.77;11.48;;;10.60;99.90;;;;;;5025860;28;20048;-88
2023/05/13 02:16:19;;;;;;;16.27;11.32;;;10.50;99.90;;;;;;5027896;28;20033;-89
2023/05/13 02:18:45;;;;;;;16.33;10.93;;;10.50;99.90;;;;;;5022533;28;20037;-89
2023/05/13 02:21:10;;;;;;;15.13;11.48;;;10.50;99.90;;;;;;5007671;28;20629;-89
2023/05/13 02:23:36;;;;;;;14.90;12.10;;;10.50;99.90;;;;;;5022531;28;20201;-89
2023/05/13 02:26:02;;;;;;;17.30;12.80;;;10.50;99.90;;;;;;5025079;28;20041;-88
2023/05/13 02:28:28;;;;;;;14.88;12.30;;;10.40;99.90;;;;;;5026586;28;20065;-88
2023/05/13 02:30:56;;;;;;;15.40;11.82;;;10.40;99.90;;;;;;5023387;28;20037;-88
2023/05/13 02:33:22;;;;;;;15.15;12.32;;;10.40;99.90;;;;;;5018679;28;20040;-88
2023/05/13 02:35:48;;;;;;;14.02;11.68;;;10.40;99.90;;;;;;5020671;28;20047;-89
2023/05/13 02:38:13;;;;;;;16.92;12.32;;;10.30;99.90;;;;;;5037621;28;20077;-88
2023/05/13 02:40:39;;;;;;;13.50;11.95;;;10.30;99.90;;;;;;5024420;28;20456;-89
2023/05/13 02:43:05;;;;;;;15.90;12.77;;;10.30;99.90;;;;;;5023253;28;20032;-89
2023/05/13 02:45:35;;;;;;;15.57;13.13;;;10.40;99.90;;;;;;5038354;28;20098;-89
2023/05/13 02:48:01;;;;;;;15.43;12.77;;;10.40;99.90;;;;;;5037389;28;20048;-89
2023/05/13 02:50:26;;;;;;;18.33;12.65;;;10.40;99.90;;;;;;5023634;28;20036;-89
2023/05/13 02:52:52;;;;;;;14.77;12.48;;;10.30;99.90;;;;;;5036320;28;20033;-89
2023/05/13 02:55:18;;;;;;;17.33;13.32;;;10.40;99.90;;;;;;5023795;28;20037;-89
2023/05/13 02:57:43;;;;;;;15.85;13.07;;;10.30;99.90;;;;;;5038674;28;20064;-89
2023/05/13 03:00:10;;;;;;;34.17;13.57;;;10.20;99.90;;;;;;5024465;28;20675;-89
2023/05/13 03:02:38;;;;;;;20.08;12.68;;;10.20;99.90;;;;;;5027395;28;20112;-89
2023/05/13 03:05:05;;;;;;;19.77;14.30;;;10.20;99.90;;;;;;5024205;28;20052;-89
2023/05/13 03:07:31;;;;;;;17.17;14.23;;;10.10;99.90;;;;;;5038375;28;20045;-90
2023/05/13 03:09:56;;;;;;;19.15;15.07;;;10.20;99.90;;;;;;5020469;28;20036;-88
2023/05/13 03:12:22;;;;;;;20.02;13.80;;;10.10;99.90;;;;;;5025267;28;20306;-89
2023/05/13 03:14:48;;;;;;;18.63;14.75;;;10.10;99.90;;;;;;5024989;28;20070;-88
2023/05/13 03:17:13;;;;;;;18.83;14.10;;;10.20;99.90;;;;;;5026228;28;20104;-89
2023/05/13 03:19:39;;;;;;;17.55;13.57;;;10.20;99.90;;;;;;5021712;28;20486;-89
2023/05/13 03:22:08;;;;;;;16.70;14.10;;;10.20;99.90;;;;;;5035359;28;20048;-88
2023/05/13 03:24:34;;;;;;;17.30;14.48;;;10.20;99.90;;;;;;5038057;28;20376;-90
2023/05/13 03:27:00;;;;;;;18.00;14.52;;;10.20;99.90;;;;;;5025610;28;20048;-89
2023/05/13 03:29:25;;;;;;;17.30;14.30;;;10.20;99.90;;;;;;5025053;28;20120;-89
2023/05/13 03:31:53;;;;;;;20.58;15.15;;;10.20;99.90;;;;;;5021786;28;20252;-89
2023/05/13 03:34:18;;;;;;;18.17;14.57;;;10.30;99.90;;;;;;5025019;28;20041;-89
2023/05/13 03:36:44;;;;;;;18.17;15.27;;;10.20;99.90;;;;;;5037617;28;20033;-88
2023/05/13 03:39:10;;;;;;;20.98;14.70;;;10.30;99.90;;;;;;5021540;28;20056;-89
2023/05/13 03:41:35;;;;;;;22.85;15.57;;;10.30;99.90;;;;;;5024309;28;20041;-89
2023/05/13 03:44:01;;;;;;;19.58;15.57;;;10.30;99.90;;;;;;5022072;28;20265;-90
2023/05/13 03:46:27;;;;;;;17.83;14.70;;;10.40;99.90;;;;;;5025823;28;20037;-89
2023/05/13 03:48:54;;;;;;;20.42;15.68;;;10.30;99.90;;;;;;5033074;28;20084;-88
2023/05/13 03:51:23;;;;;;;19.85;14.65;;;10.40;99.90;;;;;;5039531;28;20531;-92
2023/05/13 03:53:51;;;;;;;17.58;15.43;;;10.40;99.90;;;;;;5034586;28;20095;-90
2023/05/13 03:56:17;;;;;;;20.05;14.82;;;10.40;99.90;;;;;;5035453;28;20464;-90
2023/05/13 03:58:43;;;;;;;18.60;14.60;;;10.40;99.90;;;;;;5022796;28;20514;-90
2023/05/13 04:01:08;;;;;;;22.75;14.07;;;10.40;99.90;;;;;;5040474;28;20037;-89
2023/05/13 04:03:34;;;;;;;24.02;15.07;;;10.40;99.90;;;;;;5038664;28;20052;-90
2023/05/13 04:06:00;;;;;;;22.75;15.45;;;10.40;99.90;;;;;;5025461;28;20041;-90
2023/05/13 04:08:26;;;;;;;24.85;15.85;;;10.40;99.90;;;;;;5037514;28;20044;-89
2023/05/13 04:10:52;;;;;;;16.45;14.07;;;10.50;99.90;;;;;;5024828;28;20041;-89
2023/05/13 04:13:20;;;;;;;17.63;13.95;;;10.30;99.90;;;;;;5024098;28;20036;-91
2023/05/13 04:15:46;;;;;;;23.58;14.65;;;10.40;99.90;;;;;;5036055;28;20045;-89
2023/05/13 04:18:12;;;;;;;19.38;15.18;;;10.40;99.90;;;;;;5024498;28;20040;-89
2023/05/13 04:20:38;;;;;;;19.45;14.85;;;10.50;99.90;;;;;;5023855;28;20045;-90
2023/05/13 04:23:04;;;;;;;17.75;15.25;;;10.50;99.90;;;;;;5024799;28;20029;-89
2023/05/13 04:25:30;;;;;;;20.10;14.60;;;10.50;99.90;;;;;;5024871;28;20048;-90
2023/05/13 04:27:56;;;;;;;21.67;14.88;;;10.50;99.90;;;;;;5023613;28;20091;-89
2023/05/13 04:30:25;;;;;;;18.40;14.32;;;10.50;99.90;;;;;;5024604;28;20037;-90
2023/05/13 04:32:50;;;;;;;18.20;14.68;;;10.60;99.90;;;;;;5024838;28;20082;-90
2023/05/13 04:35:16;;;;;;;21.83;15.88;;;10.70;99.90;;;;;;5036134;28;20111;-89
2023/05/13 04:37:41;;;;;;;18.15;14.95;;;10.70;99.90;;;;;;5023878;28;20037;-89
2023/05/13 04:40:08;;;;;;;16.33;13.77;;;10.80;99.90;;;;;;5017736;28;20136;-90
2023/05/13 04:42:33;;;;;;;18.27;13.95;;;10.90;99.90;;;;;;5039287;28;20036;-89
2023/05/13 04:44:59;;;;;;;20.50;14.27;;;11.00;99.90;;;;;;5035114;28;20281;-90
2023/05/13 04:47:28;;;;;;;20.20;14.40;;;11.00;99.90;;;;;;5023465;28;20037;-90
2023/05/13 04:49:53;;;;;;;20.63;14.13;;;11.20;99.90;;;;;;5024837;28;20049;-90
2023/05/13 04:52:19;;;;;;;18.42;13.05;;;11.20;99.90;;;;;;5037163;28;20096;-90
2023/05/13 04:54:45;;;;;;;18.30;14.38;;;11.30;99.90;;;;;;5024021;28;20060;-90
2023/05/13 04:57:10;;;;;;;21.38;12.50;;;11.40;99.90;;;;;;5024708;28;20049;-90
2023/05/13 04:59:36;;;;;;;17.85;13.57;;;11.50;99.90;;;;;;5019146;28;20045;-90
2023/05/13 05:02:02;;;;;;;15.45;12.73;;;11.60;99.90;;;;;;5022057;28;20032;-90
2023/05/13 05:04:27;;;;;;;21.60;13.43;;;11.70;99.90;;;;;;5036930;28;20040;-90
2023/05/13 05:06:55;;;;;;;18.25;12.73;;;11.80;99.90;;;;;;5026235;28;20076;-90
2023/05/13 05:09:21;;;;;;;18.80;13.13;;;11.80;99.90;;;;;;5023843;28;20036;-90
2023/05/13 05:11:49;;;;;;;20.17;12.85;;;11.90;99.90;;;;;;5038600;28;20041;-89
2023/05/13 05:14:15;;;;;;;18.38;12.55;;;12.00;99.90;;;;;;5022003;28;20056;-89
2023/05/13 05:16:40;;;;;;;18.70;12.50;;;12.10;99.90;;;;;;5022733;28;20041;-91
2023/05/13 05:19:06;;;;;;;21.40;12.95;;;12.20;99.90;;;;;;5025892;28;20040;-90
2023/05/13 05:21:31;;;;;;;20.08;12.60;;;12.30;99.90;;;;;;5019654;28;20155;-90
2023/05/13 05:23:58;;;;;;;15.77;11.82;;;12.40;99.90;;;;;;5035680;28;20432;-90
2023/05/13 05:26:24;;;;;;;16.67;12.50;;;12.40;99.90;;;;;;5037051;28;20064;-90
2023/05/13 05:28:49;;;;;;;17.48;11.57;;;12.50;99.90;;;;;;5024311;28;20037;-90
2023/05/13 05:31:15;;;;;;;15.02;11.45;;;12.60;99.90;;;;;;5021681;28;20134;-89
2023/05/13 05:33:41;;;;;;;14.45;11.23;;;12.60;99.90;;;;;;5024142;28;20040;-91
2023/05/13 05:36:07;;;;;;;16.80;11.57;;;12.70;99.90;;;;;;5024887;28;20041;-90
2023/05/13 05:38:35;;;;;;;17.13;12.23;;;12.80;99.90;;;;;;5021176;28;20044;-89
2023/05/13 05:41:07;;;;;;;14.13;11.40;;;12.80;99.90;;;;;;5038484;28;20056;-90
2023/05/13 05:43:33;;;;;;;14.23;11.55;;;12.90;99.90;;;;;;5023513;28;20045;-91
2023/05/13 05:45:58;;;;;;;22.02;11.63;;;13.00;99.90;;;;;;5024132;28;20148;-90
2023/05/13 05:48:24;;;;;;;16.65;11.63;;;13.00;99.90;;;;;;5020772;28;20095;-89
2023/05/13 05:50:50;;;;;;;19.02;12.10;;;13.20;99.90;;;;;;5024149;28;20033;-91
2023/05/13 05:53:15;;;;;;;18.08;10.77;;;13.30;99.90;;;;;;5032271;28;20239;-89
2023/05/13 05:55:43;;;;;;;15.10;10.65;;;13.30;99.90;;;;;;5021843;28;20037;-91
2023/05/13 05:58:13;;;;;;;13.80;10.88;;;13.40;99.90;;;;;;5024047;28;20044;-91
2023/05/13 06:00:39;;;;;;;13.25;10.13;;;13.40;99.90;;;;;;5036777;28;20068;-90
2023/05/13 06:03:05;;;;;;;17.27;10.65;;;13.50;99.90;;;;;;5021418;28;20064;-90
2023/05/13 06:05:31;;;;;;;17.63;10.43;;;13.60;99.90;;;;;;5021357;28;20056;-90
2023/05/13 06:07:56;;;;;;;12.68;10.48;;;13.60;99.90;;;;;;5023254;28;20037;-89
2023/05/13 06:10:22;;;;;;;15.50;10.10;;;13.70;99.90;;;;;;5020541;28;20041;-91
2023/05/13 06:12:47;;;;;;;14.80;10.10;;;13.80;99.90;;;;;;5023054;28;20049;-90
2023/05/13 06:15:13;;;;;;;13.30;10.02;;;14.00;99.90;;;;;;5021608;28;20263;-89
2023/05/13 06:17:39;;;;;;;13.32;9.45;;;14.00;99.90;;;;;;5040255;28;20041;-89
2023/05/13 06:20:05;;;;;;;11.95;9.30;;;14.10;99.90;;;;;;5037410;28;20123;-84
2023/05/13 06:22:31;;;;;;;12.82;9.52;;;14.20;99.90;;;;;;5043042;28;20112;-84
2023/05/13 06:24:56;;;;;;;14.98;9.60;;;14.20;99.90;;;;;;5014927;28;20061;-85
2023/05/13 06:27:22;;;;;;;11.77;9.98;;;14.30;99.90;;;;;;5021189;28;20480;-84
2023/05/13 06:29:48;;;;;;;13.10;9.35;;;14.40;99.90;;;;;;5012961;28;20041;-85
2023/05/13 06:32:14;;;;;;;10.75;8.88;;;14.60;99.90;;;;;;5019232;28;20072;-84
2023/05/13 06:34:44;;;;;;;11.20;8.70;;;14.70;99.90;;;;;;5032547;28;20096;-84
2023/05/13 06:37:13;;;;;;;10.55;8.70;;;14.80;99.90;;;;;;5019503;28;20044;-85
2023/05/13 06:39:39;;;;;;;10.65;8.13;;;14.80;99.90;;;;;;5032856;28;20504;-85
2023/05/13 06:42:05;;;;;;;10.70;8.40;;;14.90;99.90;;;;;;5021623;28;20049;-85
2023/05/13 06:44:31;;;;;;;11.20;8.18;;;15.00;99.90;;;;;;5032746;28;20064;-84
2023/05/13 06:46:57;;;;;;;12.82;7.65;;;15.10;99.90;;;;;;5034088;28;20408;-85
2023/05/13 06:49:25;;;;;;;9.10;7.10;;;15.20;99.90;;;;;;5017829;28;20648;-85
2023/05/13 06:51:51;;;;;;;11.77;7.80;;;15.20;99.90;;;;;;5021262;28;20123;-85
2023/05/13 06:54:16;;;;;;;12.93;7.45;;;15.30;99.90;;;;;;5018567;28;20119;-85
2023/05/13 06:56:42;;;;;;;11.38;8.02;;;15.40;99.90;;;;;;5017644;28;20152;-84
2023/05/13 06:59:11;;;;;;;11.18;7.55;;;15.60;99.90;;;;;;5019311;28;20055;-87
2023/05/13 07:01:36;;;;;;;10.30;7.30;;;15.70;99.90;;;;;;5020046;28;20111;-86
2023/05/13 07:04:05;;;;;;;10.15;7.43;;;15.70;99.90;;;;;;5036968;28;20078;-85
2023/05/13 07:06:30;;;;;;;12.68;7.68;;;15.80;99.90;;;;;;5020168;28;20168;-86
2023/05/13 07:08:56;;;;;;;14.02;7.72;;;15.90;99.90;;;;;;5020377;28;20120;-86
2023/05/13 07:11:21;;;;;;;12.45;7.00;;;16.00;99.90;;;;;;5035496;28;20083;-85
2023/05/13 07:13:47;;;;;;;8.25;6.72;;;16.10;99.90;;;;;;5021716;28;20045;-85
2023/05/13 07:16:13;;;;;;;7.60;6.60;;;16.20;99.90;;;;;;5035323;28;20064;-84
2023/05/13 07:18:39;;;;;;;11.30;6.68;;;16.20;99.90;;;;;;5036607;28;20131;-85
2023/05/13 07:21:05;;;;;;;9.25;6.65;;;16.30;99.90;;;;;;5035456;28;20120;-85
2023/05/13 07:23:31;;;;;;;10.32;6.28;;;16.40;99.90;;;;;;5039481;28;20275;-84
2023/05/13 07:25:57;;;;;;;14.70;7.13;;;16.50;99.90;;;;;;5034465;28;20479;-86
2023/05/13 07:28:23;;;;;;;10.00;6.78;;;16.60;99.90;;;;;;5035558;28;20535;-86
2023/05/13 07:30:49;;;;;;;9.98;7.15;;;16.80;99.90;;;;;;5021325;28;20044;-86
2023/05/13 07:33:18;;;;;;;9.05;6.95;;;16.60;99.90;;;;;;5037635;28;20120;-86
2023/05/13 07:35:44;;;;;;;8.13;6.70;;;16.60;99.90;;;;;;5035088;28;20033;-86
2023/05/13 07:38:12;;;;;;;12.50;7.35;;;16.80;99.90;;;;;;5037716;28;20045;-86
2023/05/13 07:40:44;;;;;;;12.13;7.00;;;16.90;99.90;;;;;;5034064;28;20496;-86
2023/05/13 07:43:09;;;;;;;10.77;6.93;;;16.90;99.90;;;;;;5021626;28;20110;-85
2023/05/13 07:45:35;;;;;;;12.93;7.43;;;17.10;99.90;;;;;;5017993;28;20782;-85
2023/05/13 07:48:01;;;;;;;10.75;6.75;;;17.20;99.90;;;;;;5019987;28;20057;-86
2023/05/13 07:50:27;;;;;;;11.32;7.18;;;17.10;99.90;;;;;;5018092;28;20148;-86
2023/05/13 07:52:53;;;;;;;9.70;8.40;;;17.00;99.90;;;;;;5025744;28;20164;-86
2023/05/13 07:55:18;;;;;;;10.82;8.00;;;17.10;99.90;;;;;;5020830;28;20124;-86
2023/05/13 07:57:44;;;;;;;9.45;7.40;;;17.20;99.90;;;;;;5024363;28;20359;-86
2023/05/13 08:00:10;;;;;;;11.32;8.02;;;17.30;99.90;;;;;;5022945;28;20412;-86
2023/05/13 08:02:41;;;;;;;11.68;7.95;;;17.40;99.90;;;;;;5032012;28;20437;-86
2023/05/13 08:05:07;;;;;;;9.93;7.80;;;17.30;99.90;;;;;;5036587;28;20132;-87
2023/05/13 08:07:33;;;;;;;11.48;7.82;;;17.50;99.90;;;;;;5034889;28;20249;-87
2023/05/13 08:09:58;;;;;;;9.82;7.72;;;17.60;99.90;;;;;;5033935;28;20037;-88
2023/05/13 08:12:24;;;;;;;12.25;8.32;;;17.50;99.90;;;;;;5037436;28;20135;-85
2023/05/13 08:14:50;;;;;;;11.95;7.85;;;17.60;99.90;;;;;;5022477;28;20518;-86
2023/05/13 08:17:18;;;;;;;11.07;7.80;;;17.90;99.90;;;;;;5034900;28;20096;-87
2023/05/13 08:19:44;;;;;;;9.55;7.82;;;18.10;99.90;;;;;;5020808;28;20045;-87
2023/05/13 08:22:09;;;;;;;9.13;7.28;;;18.30;99.90;;;;;;5018595;28;20138;-87
2023/05/13 08:24:35;;;;;;;12.68;8.27;;;18.20;99.90;;;;;;5016818;28;20510;-87
2023/05/13 08:27:02;;;;;;;12.20;7.72;;;18.00;99.90;;;;;;5020913;28;20049;-87
2023/05/13 08:29:28;;;;;;;11.07;7.22;;;18.10;99.90;;;;;;5023068;28;20381;-86
2023/05/13 08:31:54;;;;;;;10.88;8.27;;;18.40;99.90;;;;;;5019835;28;20040;-86
2023/05/13 08:34:19;;;;;;;11.82;7.78;;;18.50;99.90;;;;;;5015477;28;20052;-86
2023/05/13 08:36:48;;;;;;;12.10;7.60;;;18.50;99.90;;;;;;5017140;28;20040;-87
2023/05/13 08:39:14;;;;;;;12.45;8.30;;;18.60;99.90;;;;;;5021281;28;20058;-86
2023/05/13 08:41:42;;;;;;;10.25;7.35;;;18.60;99.90;;;;;;5051746;28;20053;-85
2023/05/13 08:44:11;;;;;;;9.13;6.93;;;18.70;99.90;;;;;;5023485;28;20496;-85
2023/05/13 08:46:38;;;;;;;9.05;6.88;;;18.90;99.90;;;;;;5034964;28;20511;-86
2023/05/13 08:49:04;;;;;;;12.40;6.80;;;19.00;99.90;;;;;;5021606;28;20052;-86
2023/05/13 08:51:30;;;;;;;9.68;6.78;;;18.80;99.90;;;;;;5033571;28;20124;-86
2023/05/13 08:53:57;;;;;;;9.25;6.57;;;18.80;99.90;;;;;;5036063;28;20052;-87
2023/05/13 08:56:27;;;;;;;9.57;6.57;;;18.90;99.90;;;;;;5036104;28;20428;-86
2023/05/13 08:58:56;;;;;;;8.50;6.30;;;19.10;99.90;;;;;;5022176;28;20112;-86
2023/05/13 09:01:22;;;;;;;10.13;6.72;;;19.20;1.00;;;;;;5036290;28;20045;-87
2023/05/13 09:03:57;;;;;;;9.40;6.05;;;19.30;99.90;;;;;;5015482;28;20048;-86
2023/05/13 09:06:23;;;;;;;7.22;5.82;;;19.40;1.00;;;;;;5021269;28;20033;-86
2023/05/13 09:08:48;;;;;;;7.10;5.22;;;19.60;99.90;;;;;;5023830;28;20123;-86
2023/05/13 09:11:15;;;;;;;5.80;4.40;;;19.50;10.40;;;;;;5018070;28;20065;-86
2023/05/13 09:13:43;;;;;;;9.15;5.45;;;19.80;97.50;;;;;;5018978;28;20033;-86
2023/05/13 09:16:11;;;;;;;9.90;5.40;;;19.70;99.90;;;;;;5018513;28;20055;-86
2023/05/13 09:18:40;;;;;;;6.88;4.35;;;20.00;1.00;;;;;;5021706;28;20036;-88
2023/05/13 09:21:24;;;;;;;10.98;5.50;;;20.30;99.90;;;;;;5026459;28;20041;-88
2023/05/13 09:24:01;;;;;;;8.00;4.88;;;20.50;99.90;;;;;;5026079;28;20037;-88
2023/05/13 09:26:28;;;;;;;13.25;5.07;;;20.40;99.90;;;;;;5032848;28;20491;-89
2023/05/13 09:29:24;;;;;;;9.32;4.82;;;20.50;99.90;;;;;;5024327;28;20151;-90
2023/05/13 09:31:59;;;;;;;9.20;4.53;;;20.70;30.10;;;;;;5014537;28;20055;-88
2023/05/13 09:34:27;;;;;;;8.32;5.13;;;20.90;1.00;;;;;;5029106;28;20967;-87
2023/05/13 09:36:58;;;;;;;10.30;6.22;;;21.00;28.00;;;;;;5021132;28;20563;-89
2023/05/13 09:39:24;;;;;;;7.10;5.57;;;20.80;99.90;;;;;;5019420;28;20159;-87
2023/05/13 09:41:51;;;;;;;9.13;5.60;;;20.70;1.00;;;;;;5021088;28;20076;-89
2023/05/13 09:44:20;;;;;;;9.93;5.05;;;20.30;40.60;;;;;;5017572;28;20329;-87
2023/05/13 09:46:46;;;;;;;9.20;5.60;;;20.60;99.90;;;;;;5013848;28;20520;-88
2023/05/13 09:49:13;;;;;;;9.80;6.18;;;20.30;1.00;;;;;;5021746;28;20060;-86
2023/05/13 09:51:38;;;;;;;11.13;6.30;;;20.50;99.90;;;;;;5023426;28;20048;-89
2023/05/13 09:54:07;;;;;;;9.43;5.80;;;20.40;99.90;;;;;;5022062;28;20049;-87
2023/05/13 09:56:34;;;;;;;8.00;6.03;;;20.20;99.90;;;;;;5033475;28;20536;-88
2023/05/13 09:59:01;;;;;;;10.68;5.57;;;20.70;99.90;;;;;;5019616;28;20032;-86
2023/05/13 10:01:27;;;;;;;10.68;5.80;;;20.40;99.90;;;;;;5035354;28;20201;-88
2023/05/13 10:03:58;;;;;;;10.02;5.60;;;20.20;99.90;;;;;;5021404;28;20086;-86
2023/05/13 10:06:29;;;;;;;5.95;5.03;;;20.10;99.90;;;;;;5018734;28;20488;-88
2023/05/13 10:08:57;;;;;;;7.45;5.30;;;20.50;99.90;;;;;;5022691;28;20472;-87
2023/05/13 10:11:24;;;;;;;7.43;5.72;;;20.80;99.90;;;;;;5033881;28;20464;-87
2023/05/13 10:14:04;;;;;;;7.35;5.72;;;20.50;99.90;;;;;;5020945;28;20116;-86
2023/05/13 10:16:31;;;;;;;10.82;5.32;;;20.60;99.90;;;;;;5018266;28;20033;-88
2023/05/13 10:18:59;;;;;;;6.72;5.07;;;20.40;99.90;;;;;;5019982;28;20746;-86
2023/05/13 10:21:26;;;;;;;7.35;5.63;;;20.70;99.90;;;;;;5017908;28;20049;-85
2023/05/13 10:23:52;;;;;;;6.80;5.20;;;21.30;99.90;;;;;;5018541;28;20041;-86
2023/05/13 10:26:25;;;;;;;6.22;4.72;;;21.10;1.00;;;;;;5021539;28;20399;-86
2023/05/13 10:28:50;;;;;;;11.50;5.40;;;21.50;99.90;;;;;;5024180;28;20107;-86
2023/05/13 10:31:16;;;;;;;11.57;6.18;;;21.60;76.50;;;;;;5035774;28;21285;-86
2023/05/13 10:33:43;;;;;;;9.40;5.97;;;21.00;1.00;;;;;;5035201;28;20047;-86
2023/05/13 10:36:30;;;;;;;8.60;5.78;;;20.90;99.90;;;;;;5020195;28;20041;-86
2023/05/13 10:39:18;;;;;;;8.75;5.63;;;21.20;99.90;;;;;;5032981;28;20060;-86
2023/05/13 10:42:10;;;;;;;8.20;5.95;;;21.50;58.30;;;;;;5020440;28;20456;-86
2023/05/13 10:44:36;;;;;;;8.00;5.35;;;21.60;99.90;;;;;;5022092;28;20041;-87
2023/05/13 10:47:02;;;;;;;7.47;5.75;;;21.60;99.90;;;;;;5024002;28;20446;-86
2023/05/13 10:49:35;;;;;;;9.40;5.80;;;21.20;1.00;;;;;;5026079;28;20491;-86
2023/05/13 10:52:08;;;;;;;10.35;5.82;;;21.50;99.90;;;;;;5023099;28;20044;-86
2023/05/13 10:54:39;;;;;;;11.57;5.78;;;21.60;99.90;;;;;;5035791;28;20081;-86
2023/05/13 10:57:05;;;;;;;6.53;5.50;;;22.00;1.00;;;;;;5025677;28;20041;-87
2023/05/13 10:59:33;;;;;;;9.25;4.95;;;21.50;99.90;;;;;;5022420;28;20068;-86
2023/05/13 11:02:23;;;;;;;9.15;4.93;;;21.30;99.90;;;;;;5023187;28;20037;-86
2023/05/13 11:04:59;;;;;;;6.95;5.25;;;21.50;1.00;;;;;;5023896;28;20358;-86
2023/05/13 11:07:28;;;;;;;6.78;5.00;;;22.20;1.00;;;;;;5037639;28;20079;-89
2023/05/13 11:09:54;;;;;;;19.25;5.65;;;21.80;99.90;;;;;;5041858;28;20045;-87
2023/05/13 11:12:20;;;;;;;11.00;5.75;;;22.20;99.90;;;;;;5024238;28;20033;-87
2023/05/13 11:14:46;;;;;;;7.55;4.78;;;22.10;99.90;;;;;;5036863;28;20040;-87
2023/05/13 11:17:17;;;;;;;10.20;5.68;;;22.60;1.00;;;;;;5024541;28;20413;-87
2023/05/13 11:19:48;;;;;;;8.52;4.60;;;22.50;99.90;;;;;;5023708;28;20139;-89
2023/05/13 11:22:18;;;;;;;8.75;4.85;;;22.90;99.90;;;;;;5034302;28;20037;-87
2023/05/13 11:24:45;;;;;;;6.30;4.55;;;22.80;1.00;;;;;;5034467;28;20041;-89
2023/05/13 11:27:16;;;;;;;10.82;4.82;;;23.20;99.90;;;;;;5038739;28;20428;-88
2023/05/13 11:29:54;;;;;;;5.28;4.15;;;23.60;99.90;;;;;;5035424;28;20041;-87
2023/05/13 11:32:56;;;;;;;7.85;4.20;;;23.50;1.00;;;;;;5019447;28;20040;-87
2023/05/13 11:35:30;;;;;;;5.53;4.22;;;23.00;99.90;;;;;;5020444;28;20036;-87
2023/05/13 11:38:00;;;;;;;8.30;4.47;;;23.40;99.90;;;;;;5025438;28;20068;-85
2023/05/13 11:40:27;;;;;;;7.72;4.22;;;23.60;99.90;;;;;;5034591;28;20448;-88
2023/05/13 11:42:53;;;;;;;5.72;3.97;;;23.50;99.90;;;;;;5038580;28;20065;-87
2023/05/13 11:45:20;;;;;;;6.03;3.80;;;23.60;99.90;;;;;;5038574;28;20045;-87
2023/05/13 11:47:46;;;;;;;7.43;3.70;;;22.40;99.90;;;;;;5023838;28;20080;-85
2023/05/13 11:50:23;;;;;;;7.22;3.90;;;22.20;42.90;;;;;;5019148;28;20575;-86
2023/05/13 11:52:54;;;;;;;6.80;3.90;;;22.40;13.10;;;;;;5023823;28;20207;-86
2023/05/13 11:55:30;;;;;;;7.88;3.92;;;21.50;1.00;;;;;;5022921;28;20088;-85
2023/05/13 11:57:57;;;;;;;6.38;4.05;;;22.10;1.00;;;;;;5029686;28;20044;-87
2023/05/13 12:00:25;;;;;;;5.50;2.95;;;23.00;77.90;;;;;;5019994;28;20036;-85
2023/05/13 12:02:51;;;;;;;5.85;2.70;;;22.90;99.90;;;;;;5019882;28;20620;-86
2023/05/13 12:05:19;;;;;;;5.85;2.88;;;23.70;1.00;;;;;;5018692;28;20516;-85
2023/05/13 12:07:45;;;;;;;5.22;3.15;;;24.40;1.00;;;;;;5035392;28;21147;-86
2023/05/13 12:10:11;;;;;;;8.27;2.88;;;25.00;1.00;;;;;;5015386;28;20037;-85
2023/05/13 12:12:39;;;;;;;7.18;3.70;;;25.20;1.00;;;;;;5023159;28;20040;-85
2023/05/13 12:15:11;;;;;;;7.30;4.15;;;24.50;1.00;;;;;;5021430;28;20124;-84
2023/05/13 12:17:37;;;;;;;6.30;3.85;;;24.30;1.00;;;;;;5039101;28;20114;-84
2023/05/13 12:20:06;;;;;;;8.98;3.80;;;24.90;1.00;;;;;;5021915;28;20047;-85
2023/05/13 12:22:36;;;;;;;7.72;4.03;;;23.30;99.90;;;;;;5034315;28;20448;-86
2023/05/13 12:25:38;;;;;;;6.53;3.83;;;23.30;99.90;;;;;;5035023;28;20053;-86
2023/05/13 12:28:09;;;;;;;7.13;4.10;;;23.00;99.90;;;;;;5035981;28;20053;-86
2023/05/13 12:30:40;;;;;;;8.18;4.90;;;23.10;99.90;;;;;;5020880;28;20033;-85
2023/05/13 12:33:12;;;;;;;9.85;4.60;;;22.90;1.00;;;;;;5020941;28;20049;-87
2023/05/13 12:35:37;;;;;;;10.13;4.70;;;22.40;99.90;;;;;;5034254;28;20046;-85
2023/05/13 12:38:04;;;;;;;7.88;4.28;;;22.80;1.00;;;;;;5024235;28;20067;-85
2023/05/13 12:40:33;;;;;;;6.38;4.80;;;23.60;99.90;;;;;;5037324;28;20048;-85